createdAt,value
2018-12-04T09:03:07.259Z,985.72
2018-12-04T09:04:07.460Z,985.72
2018-12-04T09:05:07.660Z,985.70
2018-12-04T09:06:07.849Z,985.82
2018-12-04T09:07:08.048Z,985.70
2018-12-04T09:08:09.462Z,985.74
2018-12-04T09:09:08.433Z,985.85
2018-12-04T09:10:08.626Z,985.83
2018-12-04T09:11:08.825Z,985.95
2018-12-04T09:12:09.021Z,985.96
2018-12-04T09:13:09.216Z,985.97
2018-12-04T09:14:09.412Z,985.88
2018-12-04T09:15:09.616Z,986.06
2018-12-04T09:16:09.821Z,986.06
2018-12-04T09:17:10.022Z,986.09
2018-12-04T09:18:10.217Z,986.14
2018-12-04T09:19:10.468Z,986.14
2018-12-04T09:20:10.615Z,986.19
2018-12-04T09:21:10.854Z,986.14
2018-12-04T09:22:11.022Z,986.16
2018-12-04T09:23:11.228Z,986.18
2018-12-04T09:24:11.417Z,986.23
2018-12-04T09:25:11.605Z,986.20
2018-12-04T09:26:11.813Z,986.26
2018-12-04T09:27:12.019Z,986.31
2018-12-04T09:28:12.307Z,986.27
2018-12-04T09:29:12.439Z,986.29
2018-12-04T09:30:12.621Z,986.31
2018-12-04T09:31:12.793Z,986.33
2018-12-04T09:32:12.989Z,986.34
2018-12-04T09:33:13.183Z,986.39
2018-12-04T09:34:13.382Z,986.37
2018-12-04T09:35:13.578Z,986.36
2018-12-04T09:36:13.776Z,986.34
2018-12-04T09:37:13.973Z,986.28
2018-12-04T09:38:14.174Z,986.18
2018-12-04T09:39:14.369Z,986.20
2018-12-04T09:40:14.566Z,986.33
2018-12-04T09:41:14.762Z,986.21
2018-12-04T09:42:14.960Z,986.28
2018-12-04T09:43:15.161Z,986.42
2018-12-04T09:44:15.353Z,986.47
2018-12-04T09:45:15.548Z,986.44
2018-12-04T09:46:15.751Z,986.45
2018-12-04T09:47:16.793Z,986.46
2018-12-04T09:48:16.145Z,986.30
2018-12-04T09:49:16.344Z,986.45
2018-12-04T09:50:16.538Z,986.45
2018-12-04T09:51:16.745Z,986.53
2018-12-04T09:52:16.934Z,986.63
2018-12-04T09:53:17.132Z,986.47
2018-12-04T09:54:17.327Z,986.43
2018-12-04T09:55:17.534Z,986.43
2018-12-04T09:56:17.730Z,986.41
2018-12-04T09:57:17.934Z,986.58
2018-12-04T09:58:18.122Z,986.41
2018-12-04T09:59:18.377Z,986.43
2018-12-04T10:00:18.515Z,986.50
2018-12-04T10:01:18.709Z,986.63
2018-12-04T10:02:18.909Z,986.53
2018-12-04T10:03:19.107Z,986.52
2018-12-04T10:04:19.301Z,986.52
2018-12-04T10:05:19.495Z,986.56
2018-12-04T10:06:19.697Z,986.56
2018-12-04T10:07:19.892Z,986.45
2018-12-04T10:08:20.093Z,986.52
2018-12-04T10:09:20.289Z,986.50
2018-12-04T10:10:20.491Z,986.45
2018-12-04T10:11:20.693Z,986.45
2018-12-04T10:12:20.893Z,986.46
2018-12-04T10:13:21.089Z,986.48
2018-12-04T10:14:21.285Z,986.63
2018-12-04T10:15:21.471Z,986.64
2018-12-04T10:16:21.664Z,986.70
2018-12-04T10:17:21.857Z,986.77
2018-12-04T10:18:22.048Z,986.66
2018-12-04T10:19:22.242Z,986.81
2018-12-04T10:20:22.433Z,986.84
2018-12-04T10:21:22.632Z,986.83
2018-12-04T10:22:22.833Z,986.87
2018-12-04T10:23:23.022Z,986.88
2018-12-04T10:24:23.230Z,986.91
2018-12-04T10:25:23.431Z,986.95
2018-12-04T10:26:23.623Z,986.98
2018-12-04T10:27:23.817Z,986.82
2018-12-04T10:28:24.015Z,986.88
2018-12-04T10:29:24.209Z,987.08
2018-12-04T10:30:24.397Z,987.08
2018-12-04T10:31:24.591Z,987.18
2018-12-04T10:32:24.793Z,987.22
2018-12-04T10:33:24.990Z,987.28
2018-12-04T10:34:25.191Z,987.25
2018-12-04T10:35:25.386Z,987.16
2018-12-04T10:36:25.586Z,987.21
2018-12-04T10:37:25.779Z,987.10
2018-12-04T10:38:25.977Z,987.28
2018-12-04T10:39:26.179Z,987.30
2018-12-04T10:40:26.376Z,987.19
2018-12-04T10:41:26.572Z,987.32
2018-12-04T10:42:26.768Z,987.34
2018-12-04T10:43:26.965Z,987.30
2018-12-04T10:44:27.166Z,987.33
2018-12-04T10:45:27.366Z,987.40
2018-12-04T10:46:27.561Z,987.40
2018-12-04T10:47:27.757Z,987.30
2018-12-04T10:48:27.957Z,987.41
2018-12-04T10:49:28.154Z,987.45
2018-12-04T10:50:28.360Z,987.46
2018-12-04T10:51:28.555Z,987.51
2018-12-04T10:52:28.752Z,987.50
2018-12-04T10:53:28.951Z,987.22
2018-12-04T10:54:29.149Z,987.31
2018-12-04T10:55:29.340Z,987.27
2018-12-04T10:56:29.545Z,987.30
2018-12-04T10:57:29.743Z,987.34
2018-12-04T10:58:29.937Z,987.30
2018-12-04T10:59:30.129Z,987.26
2018-12-04T11:00:30.331Z,987.24
2018-12-04T11:01:30.522Z,987.25
2018-12-04T11:02:30.720Z,987.30
2018-12-04T11:03:30.913Z,987.55
2018-12-04T11:04:31.107Z,987.51
2018-12-04T11:05:31.300Z,987.36
2018-12-04T11:06:31.503Z,987.55
2018-12-04T11:07:31.700Z,987.52
2018-12-04T11:08:31.895Z,987.49
2018-12-04T11:09:32.095Z,987.39
2018-12-04T11:10:32.297Z,987.56
2018-12-04T11:11:32.490Z,987.57
2018-12-04T11:12:32.694Z,987.63
2018-12-04T11:13:32.895Z,987.67
2018-12-04T11:14:33.080Z,987.65
2018-12-04T11:15:33.287Z,987.70
2018-12-04T11:16:33.482Z,987.66
2018-12-04T11:17:33.682Z,987.61
2018-12-04T11:18:33.875Z,987.68
2018-12-04T11:19:34.071Z,987.73
2018-12-04T11:20:34.267Z,987.76
2018-12-04T11:21:34.460Z,987.77
2018-12-04T11:22:34.658Z,987.75
2018-12-04T11:23:34.857Z,987.77
2018-12-04T11:24:35.050Z,987.81
2018-12-04T11:25:35.249Z,987.87
2018-12-04T11:26:35.445Z,987.88
2018-12-04T11:27:35.638Z,987.91
2018-12-04T11:28:35.838Z,987.70
2018-12-04T11:29:36.032Z,987.85
2018-12-04T11:30:36.236Z,987.73
2018-12-04T11:31:36.442Z,987.95
2018-12-04T11:32:36.632Z,987.75
2018-12-04T11:33:36.836Z,987.72
2018-12-04T11:34:37.027Z,987.76
2018-12-04T11:35:37.224Z,987.80
2018-12-04T11:36:37.418Z,987.78
2018-12-04T11:37:37.625Z,987.66
2018-12-04T11:38:37.818Z,987.77
2018-12-04T11:39:38.010Z,987.77
2018-12-04T11:40:38.205Z,987.74
2018-12-04T11:41:38.398Z,987.97
2018-12-04T11:42:38.596Z,987.94
2018-12-04T11:43:38.792Z,987.68
2018-12-04T11:44:38.983Z,987.67
2018-12-04T11:45:39.180Z,987.64
2018-12-04T11:46:39.373Z,987.70
2018-12-04T11:47:39.565Z,987.68
2018-12-04T11:48:39.758Z,987.69
2018-12-04T11:49:39.951Z,987.70
2018-12-04T11:50:40.144Z,987.79
2018-12-04T11:51:40.335Z,987.81
2018-12-04T11:52:40.521Z,987.74
2018-12-04T11:53:40.724Z,987.76
2018-12-04T11:54:40.916Z,987.77
2018-12-04T11:55:41.103Z,987.66
2018-12-04T11:56:41.299Z,988.00
2018-12-04T11:57:41.499Z,987.72
2018-12-04T11:58:41.723Z,987.90
2018-12-04T11:59:41.876Z,987.71
2018-12-04T12:00:42.069Z,987.66
2018-12-04T12:01:42.258Z,987.71
2018-12-04T12:02:42.453Z,987.70
2018-12-04T12:03:42.642Z,987.64
2018-12-04T12:04:42.836Z,987.82
2018-12-04T12:05:43.036Z,987.70
2018-12-04T12:06:43.221Z,987.73
2018-12-04T12:07:43.415Z,987.78
2018-12-04T12:08:43.609Z,987.75
2018-12-04T12:09:43.807Z,987.77
2018-12-04T12:10:43.991Z,987.81
2018-12-04T12:11:44.186Z,987.83
2018-12-04T12:12:44.374Z,987.83
2018-12-04T12:13:44.564Z,987.83
2018-12-04T12:14:44.753Z,987.82
2018-12-04T12:15:44.941Z,987.82
2018-12-04T12:16:45.126Z,987.89
2018-12-04T12:17:45.315Z,988.11
2018-12-04T12:18:45.509Z,988.16
2018-12-04T12:19:45.691Z,988.17
2018-12-04T12:20:45.880Z,988.09
2018-12-04T12:21:46.083Z,988.22
2018-12-04T12:22:46.267Z,988.25
2018-12-04T12:23:46.453Z,988.26
2018-12-04T12:24:46.648Z,988.15
2018-12-04T12:25:46.851Z,988.31
2018-12-04T12:26:47.039Z,988.35
2018-12-04T12:27:47.232Z,988.37
2018-12-04T12:28:47.420Z,988.42
2018-12-04T12:29:47.618Z,988.38
2018-12-04T12:30:47.804Z,988.44
2018-12-04T12:31:47.991Z,988.44
2018-12-04T12:32:48.185Z,988.51
2018-12-04T12:33:48.371Z,988.28
2018-12-04T12:34:48.561Z,988.34
2018-12-04T12:35:48.755Z,988.35
2018-12-04T12:36:48.942Z,988.27
2018-12-04T12:37:49.129Z,988.33
2018-12-04T12:38:49.322Z,988.46
2018-12-04T12:39:49.517Z,988.47
2018-12-04T12:40:49.703Z,988.30
2018-12-04T12:41:49.896Z,988.29
2018-12-04T12:42:50.088Z,988.30
2018-12-04T12:43:50.277Z,988.34
2018-12-04T12:44:50.466Z,988.31
2018-12-04T12:45:50.654Z,988.38
2018-12-04T12:46:50.850Z,988.39
2018-12-04T12:47:51.043Z,988.43
2018-12-04T12:48:51.241Z,988.39
2018-12-04T12:49:51.432Z,988.44
2018-12-04T12:50:51.620Z,988.40
2018-12-04T12:51:51.819Z,988.44
2018-12-04T12:52:52.800Z,988.46
2018-12-04T12:53:52.871Z,988.46
2018-12-04T12:54:52.310Z,988.44
2018-12-04T12:55:52.500Z,988.46
2018-12-04T12:56:52.684Z,988.41
2018-12-04T12:57:52.874Z,988.54
2018-12-04T12:58:53.060Z,988.62
2018-12-04T12:59:53.260Z,988.49
2018-12-04T13:00:53.463Z,988.54
2018-12-04T13:01:53.653Z,988.50
2018-12-04T13:02:53.829Z,988.54
2018-12-04T13:03:54.026Z,988.69
2018-12-04T13:04:54.208Z,988.70
2018-12-04T13:05:54.395Z,988.67
2018-12-04T13:06:54.585Z,988.70
2018-12-04T13:07:54.779Z,988.64
2018-12-04T13:08:54.973Z,988.64
2018-12-04T13:09:55.154Z,988.65
2018-12-04T13:10:55.342Z,988.67
2018-12-04T13:11:55.532Z,988.66
2018-12-04T13:12:55.718Z,988.72
2018-12-04T13:13:55.912Z,988.73
2018-12-04T13:14:56.114Z,988.72
2018-12-04T13:15:56.309Z,988.69
2018-12-04T13:16:56.480Z,988.72
2018-12-04T13:17:56.670Z,988.76
2018-12-04T13:18:56.865Z,988.77
2018-12-04T13:19:57.045Z,988.77
2018-12-04T13:20:57.234Z,988.74
2018-12-04T13:21:57.421Z,988.76
2018-12-04T13:22:57.607Z,988.84
2018-12-04T13:23:57.798Z,988.87
2018-12-04T13:24:57.989Z,988.84
2018-12-04T13:25:58.185Z,988.81
2018-12-04T13:26:58.369Z,988.83
2018-12-04T13:27:58.564Z,988.80
2018-12-04T13:28:58.753Z,988.81
2018-12-04T13:29:58.927Z,988.88
2018-12-04T13:30:59.132Z,988.90
2018-12-04T13:31:59.325Z,988.83
2018-12-04T13:32:59.524Z,988.82
2018-12-04T13:33:59.695Z,988.87
2018-12-04T13:34:59.896Z,988.90
2018-12-04T13:36:00.082Z,988.97
2018-12-04T13:37:00.265Z,989.00
2018-12-04T13:38:00.461Z,988.99
2018-12-04T13:39:00.657Z,989.01
2018-12-04T13:40:00.852Z,988.99
2018-12-04T13:41:01.031Z,989.05
2018-12-04T13:42:01.221Z,989.02
2018-12-04T13:43:01.408Z,989.01
2018-12-04T13:44:01.623Z,989.07
2018-12-04T13:45:01.798Z,989.02
2018-12-04T13:46:01.981Z,989.01
2018-12-04T13:47:02.178Z,988.99
2018-12-04T13:48:02.385Z,989.01
2018-12-04T13:49:02.565Z,989.01
2018-12-04T13:50:02.759Z,989.04
2018-12-04T13:51:02.948Z,989.09
2018-12-04T13:52:03.134Z,989.08
2018-12-04T13:53:03.323Z,989.10
2018-12-04T13:54:03.520Z,989.12
2018-12-04T13:55:03.710Z,989.15
2018-12-04T13:56:03.895Z,989.20
2018-12-04T13:57:04.093Z,989.18
2018-12-04T13:58:04.282Z,989.16
2018-12-04T13:59:04.493Z,989.20
2018-12-04T14:00:04.655Z,989.21
2018-12-04T14:01:04.857Z,989.22
2018-12-04T14:02:05.040Z,989.19
2018-12-04T14:03:05.223Z,989.16
2018-12-04T14:04:05.427Z,989.25
2018-12-04T14:05:08.070Z,989.24
2018-12-04T14:06:05.814Z,989.23
2018-12-04T14:07:05.986Z,989.22
2018-12-04T14:08:06.163Z,989.23
2018-12-04T14:09:06.365Z,989.24
2018-12-04T14:10:06.566Z,989.26
2018-12-04T14:11:06.751Z,989.28
2018-12-04T14:12:06.938Z,989.27
2018-12-04T14:13:07.111Z,989.27
2018-12-04T14:14:07.300Z,989.26
2018-12-04T14:15:07.484Z,989.27
2018-12-04T14:16:07.694Z,989.22
2018-12-04T14:17:07.863Z,989.24
2018-12-04T14:18:08.077Z,989.23
2018-12-04T14:19:08.241Z,989.21
2018-12-04T14:20:08.435Z,989.26
2018-12-04T14:21:08.646Z,989.27
2018-12-04T14:22:08.816Z,989.31
2018-12-04T14:23:08.986Z,989.37
2018-12-04T14:24:09.185Z,989.40
2018-12-04T14:25:09.352Z,989.44
2018-12-04T14:26:09.540Z,989.47
2018-12-04T14:27:09.725Z,989.50
2018-12-04T14:28:09.919Z,989.53
2018-12-04T14:29:10.123Z,989.51
2018-12-04T14:30:10.280Z,989.50
2018-12-04T14:31:10.499Z,989.54
2018-12-04T14:32:10.701Z,989.60
2018-12-04T14:33:10.902Z,989.59
2018-12-04T14:34:11.161Z,989.60
2018-12-04T14:35:11.244Z,989.58
2018-12-04T14:36:12.791Z,989.63
2018-12-04T14:37:11.626Z,989.62
2018-12-04T14:38:11.819Z,989.62
2018-12-04T14:39:12.074Z,989.64
2018-12-04T14:40:12.170Z,989.66
2018-12-04T14:41:12.363Z,989.69
2018-12-04T14:42:12.545Z,989.74
2018-12-04T14:43:12.759Z,989.67
2018-12-04T14:44:12.922Z,989.74
2018-12-04T14:45:13.122Z,989.78
2018-12-04T14:46:13.320Z,989.80
2018-12-04T14:47:13.494Z,989.80
2018-12-04T14:48:13.682Z,989.82
2018-12-04T14:49:13.871Z,989.83
2018-12-04T14:50:14.042Z,989.90
2018-12-04T14:51:14.229Z,989.90
2018-12-04T14:52:14.426Z,989.88
2018-12-04T14:53:14.608Z,989.94
2018-12-04T14:54:14.793Z,989.92
2018-12-04T14:55:14.983Z,989.94
2018-12-04T14:56:15.171Z,990.01
2018-12-04T14:57:15.343Z,989.98
2018-12-04T14:58:15.538Z,990.07
2018-12-04T14:59:15.750Z,990.05
2018-12-04T15:00:15.923Z,990.10
2018-12-04T15:01:16.117Z,990.13
2018-12-04T15:02:16.265Z,990.17
2018-12-04T15:03:16.446Z,990.16
2018-12-04T15:04:16.638Z,990.17
2018-12-04T15:05:16.832Z,990.18
2018-12-04T15:06:17.040Z,990.22
2018-12-04T15:07:17.206Z,990.20
2018-12-04T15:08:17.399Z,990.23
2018-12-04T15:09:17.583Z,990.22
2018-12-04T15:10:17.762Z,990.27
2018-12-04T15:11:17.943Z,990.26
2018-12-04T15:12:18.133Z,990.28
2018-12-04T15:13:18.337Z,990.25
2018-12-04T15:14:18.497Z,990.30
2018-12-04T15:15:18.694Z,990.30
2018-12-04T15:16:18.874Z,990.32
2018-12-04T15:17:19.057Z,990.36
2018-12-04T15:18:19.277Z,990.37
2018-12-04T15:19:19.423Z,990.38
2018-12-04T15:20:19.635Z,990.40
2018-12-04T15:21:19.825Z,990.39
2018-12-04T15:22:20.019Z,990.43
2018-12-04T15:23:20.161Z,990.46
2018-12-04T15:24:20.355Z,990.50
2018-12-04T15:25:20.533Z,990.54
2018-12-04T15:26:20.748Z,990.53
2018-12-04T15:27:20.918Z,990.56
2018-12-04T15:28:21.082Z,990.56
2018-12-04T15:29:21.271Z,990.58
2018-12-04T15:30:21.459Z,990.61
2018-12-04T15:31:21.638Z,990.56
2018-12-04T15:32:21.817Z,990.59
2018-12-04T15:33:22.037Z,990.58
2018-12-04T15:34:22.250Z,990.62
2018-12-04T15:35:22.372Z,990.59
2018-12-04T15:36:22.610Z,990.58
2018-12-04T15:37:22.746Z,990.60
2018-12-04T15:38:22.970Z,990.61
2018-12-04T15:39:23.116Z,990.61
2018-12-04T15:40:23.333Z,990.61
2018-12-04T15:41:23.534Z,990.62
2018-12-04T15:42:23.684Z,990.62
2018-12-04T15:43:23.901Z,990.63
2018-12-04T15:44:24.069Z,990.67
2018-12-04T15:45:24.225Z,990.68
2018-12-04T15:46:24.422Z,990.72
2018-12-04T15:47:24.597Z,990.72
2018-12-04T15:48:24.777Z,990.74
2018-12-04T15:49:24.975Z,990.73
2018-12-04T15:50:25.175Z,990.80
2018-12-04T15:51:25.362Z,990.81
2018-12-04T15:52:25.542Z,990.87
2018-12-04T15:53:25.748Z,990.84
2018-12-04T15:54:25.907Z,990.85
2018-12-04T15:55:26.090Z,990.82
2018-12-04T15:56:26.280Z,990.86
2018-12-04T15:57:26.456Z,990.87
2018-12-04T15:58:26.647Z,990.89
2018-12-04T15:59:26.833Z,990.88
2018-12-04T16:00:27.023Z,990.88
2018-12-04T16:01:27.215Z,990.90
2018-12-04T16:02:27.389Z,990.92
2018-12-04T16:03:27.568Z,990.95
2018-12-04T16:04:27.751Z,990.96
2018-12-04T16:05:27.939Z,991.00
2018-12-04T16:06:28.121Z,991.03
2018-12-04T16:07:28.306Z,990.99
2018-12-04T16:08:28.492Z,990.98
2018-12-04T16:09:28.683Z,991.02
2018-12-04T16:10:28.867Z,991.03
2018-12-04T16:11:29.047Z,991.05
2018-12-04T16:12:29.233Z,991.12
2018-12-04T16:13:29.419Z,991.11
2018-12-04T16:14:29.599Z,991.11
2018-12-04T16:15:29.780Z,991.14
2018-12-04T16:16:29.961Z,991.18
2018-12-04T16:17:30.140Z,991.22
2018-12-04T16:18:30.320Z,991.22
2018-12-04T16:19:30.517Z,991.18
2018-12-04T16:20:30.699Z,991.19
2018-12-04T16:21:30.882Z,991.26
2018-12-04T16:22:31.080Z,991.20
2018-12-04T16:23:31.260Z,991.23
2018-12-04T16:24:31.496Z,991.22
2018-12-04T16:25:31.622Z,991.21
2018-12-04T16:26:31.814Z,991.26
2018-12-04T16:27:31.990Z,991.28
2018-12-04T16:28:32.184Z,991.27
2018-12-04T16:29:32.364Z,991.29
2018-12-04T16:30:32.544Z,991.31
2018-12-04T16:31:32.732Z,991.29
2018-12-04T16:32:32.923Z,991.34
2018-12-04T16:33:33.117Z,991.37
2018-12-04T16:34:33.309Z,991.39
2018-12-04T16:35:33.489Z,991.42
2018-12-04T16:36:33.666Z,991.41
2018-12-04T16:37:33.851Z,991.43
2018-12-04T16:38:34.036Z,991.43
2018-12-04T16:39:34.216Z,991.45
2018-12-04T16:40:34.403Z,991.49
2018-12-04T16:41:34.598Z,991.45
2018-12-04T16:42:34.772Z,991.48
2018-12-04T16:43:34.956Z,991.51
2018-12-04T16:44:35.142Z,991.51
2018-12-04T16:45:35.323Z,991.52
2018-12-04T16:46:35.508Z,991.51
2018-12-04T16:47:35.684Z,991.54
2018-12-04T16:48:35.869Z,991.56
2018-12-04T16:49:36.055Z,991.60
2018-12-04T16:50:36.233Z,991.62
2018-12-04T16:51:36.416Z,991.64
2018-12-04T16:52:36.594Z,991.63
2018-12-04T16:53:36.783Z,991.61
2018-12-04T16:54:36.962Z,991.63
2018-12-04T16:55:37.145Z,991.68
2018-12-04T16:56:37.328Z,991.63
2018-12-04T16:57:37.528Z,991.62
2018-12-04T16:58:37.717Z,991.67
2018-12-04T16:59:37.908Z,991.65
2018-12-04T17:00:38.093Z,991.65
2018-12-04T17:01:38.280Z,991.67
2018-12-04T17:02:38.465Z,991.71
2018-12-04T17:03:38.641Z,991.72
2018-12-04T17:04:38.830Z,991.76
2018-12-04T17:05:39.008Z,991.76
2018-12-04T17:06:39.190Z,991.82
2018-12-04T17:07:39.373Z,991.83
2018-12-04T17:08:39.550Z,991.81
2018-12-04T17:09:39.745Z,991.86
2018-12-04T17:10:39.912Z,991.83
2018-12-04T17:11:40.105Z,991.87
2018-12-04T17:12:40.294Z,991.86
2018-12-04T17:13:40.484Z,991.87
2018-12-04T17:14:40.672Z,991.88
2018-12-04T17:15:40.869Z,991.89
2018-12-04T17:16:41.051Z,991.91
2018-12-04T17:17:41.235Z,991.93
2018-12-04T17:18:41.421Z,991.88
2018-12-04T17:19:41.604Z,991.93
2018-12-04T17:20:41.785Z,991.93
2018-12-04T17:21:41.965Z,991.93
2018-12-04T17:22:42.143Z,991.91
2018-12-04T17:23:42.330Z,991.95
2018-12-04T17:24:42.503Z,991.95
2018-12-04T17:25:42.690Z,991.96
2018-12-04T17:26:42.868Z,992.01
2018-12-04T17:27:43.049Z,992.02
2018-12-04T17:28:43.228Z,992.02
2018-12-04T17:29:43.410Z,992.04
2018-12-04T17:30:43.590Z,992.10
2018-12-04T17:31:43.781Z,992.10
2018-12-04T17:32:43.969Z,992.09
2018-12-04T17:33:44.147Z,992.18
2018-12-04T17:34:44.330Z,992.15
2018-12-04T17:35:44.504Z,992.12
2018-12-04T17:36:44.685Z,992.11
2018-12-04T17:37:44.869Z,992.16
2018-12-04T17:38:45.065Z,992.16
2018-12-04T17:39:45.255Z,992.20
2018-12-04T17:40:45.432Z,992.19
2018-12-04T17:41:45.614Z,992.23
2018-12-04T17:42:45.796Z,992.24
2018-12-04T17:43:45.978Z,992.23
2018-12-04T17:44:46.183Z,992.26
2018-12-04T17:45:46.361Z,992.25
2018-12-04T17:46:46.554Z,992.24
2018-12-04T17:47:46.736Z,992.25
2018-12-04T17:48:46.919Z,992.23
2018-12-04T17:49:47.096Z,992.23
2018-12-04T17:50:47.281Z,992.27
2018-12-04T17:51:47.468Z,992.29
2018-12-04T17:52:47.650Z,992.29
2018-12-04T17:53:47.836Z,992.30
2018-12-04T17:54:48.024Z,992.32
2018-12-04T17:55:48.200Z,992.33
2018-12-04T17:56:48.389Z,992.33
2018-12-04T17:57:48.564Z,992.35
2018-12-04T17:58:48.747Z,992.34
2018-12-04T17:59:48.925Z,992.38
2018-12-04T18:00:49.109Z,992.40
2018-12-04T18:01:49.285Z,992.38
2018-12-04T18:02:49.468Z,992.36
2018-12-04T18:03:49.652Z,992.36
2018-12-04T18:04:49.834Z,992.39
2018-12-04T18:05:50.022Z,992.43
2018-12-04T18:06:50.210Z,992.42
2018-12-04T18:07:50.388Z,992.41
2018-12-04T18:08:50.571Z,992.38
2018-12-04T18:09:50.742Z,992.38
2018-12-04T18:10:50.921Z,992.41
2018-12-04T18:11:51.098Z,992.34
2018-12-04T18:12:51.280Z,992.36
2018-12-04T18:13:51.463Z,992.40
2018-12-04T18:14:51.645Z,992.36
2018-12-04T18:15:51.842Z,992.42
2018-12-04T18:16:52.020Z,992.42
2018-12-04T18:17:52.200Z,992.43
2018-12-04T18:18:52.377Z,992.45
2018-12-04T18:19:52.558Z,992.45
2018-12-04T18:20:52.756Z,992.48
2018-12-04T18:21:52.937Z,992.49
2018-12-04T18:22:53.120Z,992.52
2018-12-04T18:23:53.303Z,992.48
2018-12-04T18:24:53.481Z,992.50
2018-12-04T18:25:53.666Z,992.49
2018-12-04T18:26:53.850Z,992.50
2018-12-04T18:27:54.030Z,992.54
2018-12-04T18:28:54.215Z,992.50
2018-12-04T18:29:54.393Z,992.51
2018-12-04T18:30:54.577Z,992.48
2018-12-04T18:31:54.757Z,992.46
2018-12-04T18:32:54.939Z,992.46
2018-12-04T18:33:55.118Z,992.49
2018-12-04T18:34:55.306Z,992.50
2018-12-04T18:35:55.509Z,992.49
2018-12-04T18:36:55.686Z,992.55
2018-12-04T18:37:55.864Z,992.52
2018-12-04T18:38:56.054Z,992.55
2018-12-04T18:39:56.239Z,992.63
2018-12-04T18:40:56.726Z,992.56
2018-12-04T18:41:56.590Z,992.61
2018-12-04T18:42:56.768Z,992.62
2018-12-04T18:43:56.952Z,992.60
2018-12-04T18:44:57.132Z,992.64
2018-12-04T18:45:57.318Z,992.65
2018-12-04T18:46:57.510Z,992.64
2018-12-04T18:47:57.707Z,992.65
2018-12-04T18:48:57.875Z,992.69
2018-12-04T18:49:58.066Z,992.69
2018-12-04T18:50:58.260Z,992.69
2018-12-04T18:51:58.448Z,992.69
2018-12-04T18:52:58.624Z,992.67
2018-12-04T18:53:58.817Z,992.65
2018-12-04T18:54:58.989Z,992.67
2018-12-04T18:55:59.175Z,992.65
2018-12-04T18:56:59.352Z,992.66
2018-12-04T18:57:59.535Z,992.67
2018-12-04T18:58:59.732Z,992.67
2018-12-04T18:59:59.909Z,992.65
2018-12-04T19:01:00.084Z,992.65
2018-12-04T19:02:00.266Z,992.68
2018-12-04T19:03:00.451Z,992.65
2018-12-04T19:04:00.642Z,992.68
2018-12-04T19:05:00.836Z,992.67
2018-12-04T19:06:01.014Z,992.71
2018-12-04T19:07:01.195Z,992.72
2018-12-04T19:08:01.379Z,992.70
2018-12-04T19:09:01.556Z,992.75
2018-12-04T19:10:01.736Z,992.75
2018-12-04T19:11:01.917Z,992.77
2018-12-04T19:12:02.096Z,992.84
2018-12-04T19:13:02.275Z,992.84
2018-12-04T19:14:02.458Z,992.84
2018-12-04T19:15:02.634Z,992.87
2018-12-04T19:16:02.817Z,992.87
2018-12-04T19:17:02.999Z,992.91
2018-12-04T19:18:03.176Z,992.89
2018-12-04T19:19:03.354Z,992.91
2018-12-04T19:20:03.539Z,992.91
2018-12-04T19:21:03.715Z,992.90
2018-12-04T19:22:03.887Z,992.91
2018-12-04T19:23:04.086Z,992.87
2018-12-04T19:24:04.275Z,992.93
2018-12-04T19:25:04.445Z,992.95
2018-12-04T19:26:04.624Z,992.97
2018-12-04T19:27:04.801Z,993.02
2018-12-04T19:28:04.984Z,993.05
2018-12-04T19:29:05.162Z,993.09
2018-12-04T19:30:05.343Z,993.14
2018-12-04T19:31:05.517Z,993.15
2018-12-04T19:32:05.709Z,993.14
2018-12-04T19:33:05.891Z,993.18
2018-12-04T19:34:06.119Z,993.22
2018-12-04T19:35:06.247Z,993.16
2018-12-04T19:36:06.424Z,993.15
2018-12-04T19:37:06.605Z,993.16
2018-12-04T19:38:06.783Z,993.19
2018-12-04T19:39:06.963Z,993.20
2018-12-04T19:40:07.144Z,993.21
2018-12-04T19:41:07.335Z,993.25
2018-12-04T19:42:07.515Z,993.27
2018-12-04T19:43:07.703Z,993.26
2018-12-04T19:44:07.888Z,993.27
2018-12-04T19:45:08.067Z,993.29
2018-12-04T19:46:08.248Z,993.31
2018-12-04T19:47:08.441Z,993.32
2018-12-04T19:48:08.633Z,993.34
2018-12-04T19:49:08.835Z,993.32
2018-12-04T19:50:09.014Z,993.31
2018-12-04T19:51:09.198Z,993.35
2018-12-04T19:52:09.388Z,993.40
2018-12-04T19:53:09.587Z,993.39
2018-12-04T19:54:09.757Z,993.39
2018-12-04T19:55:09.939Z,993.39
2018-12-04T19:56:10.123Z,993.40
2018-12-04T19:57:10.300Z,993.43
2018-12-04T19:58:10.491Z,993.42
2018-12-04T19:59:10.664Z,993.46
2018-12-04T20:00:10.846Z,993.46
2018-12-04T20:01:11.055Z,993.46
2018-12-04T20:02:11.235Z,993.45
2018-12-04T20:03:11.422Z,993.45
2018-12-04T20:04:11.603Z,993.45
2018-12-04T20:05:11.788Z,993.47
2018-12-04T20:06:11.972Z,993.50
2018-12-04T20:07:12.154Z,993.50
2018-12-04T20:08:12.346Z,993.53
2018-12-04T20:09:12.532Z,993.55
2018-12-04T20:10:12.724Z,993.57
2018-12-04T20:11:12.887Z,993.57
2018-12-04T20:12:13.067Z,993.58
2018-12-04T20:13:13.245Z,993.57
2018-12-04T20:14:13.436Z,993.59
2018-12-04T20:15:13.631Z,993.68
2018-12-04T20:16:13.808Z,993.69
2018-12-04T20:17:13.984Z,993.68
2018-12-04T20:18:14.163Z,993.77
2018-12-04T20:19:14.352Z,993.75
2018-12-04T20:20:14.540Z,993.79
2018-12-04T20:21:14.725Z,993.79
2018-12-04T20:22:14.902Z,993.85
2018-12-04T20:23:15.079Z,993.81
2018-12-04T20:24:15.269Z,993.83
2018-12-04T20:25:15.441Z,993.82
2018-12-04T20:26:15.804Z,993.83
2018-12-04T20:27:15.865Z,993.80
2018-12-04T20:28:16.036Z,993.82
2018-12-04T20:29:16.214Z,993.83
2018-12-04T20:30:16.387Z,993.84
2018-12-04T20:31:16.566Z,993.84
2018-12-04T20:32:16.739Z,993.85
2018-12-04T20:33:16.941Z,993.89
2018-12-04T20:34:17.124Z,993.89
2018-12-04T20:35:17.305Z,993.93
2018-12-04T20:36:17.502Z,993.95
2018-12-04T20:37:17.692Z,993.99
2018-12-04T20:38:17.870Z,993.98
2018-12-04T20:39:18.046Z,994.06
2018-12-04T20:40:18.232Z,994.06
2018-12-04T20:41:18.415Z,994.10
2018-12-04T20:42:23.246Z,994.08
2018-12-04T20:43:18.777Z,994.07
2018-12-04T20:44:18.966Z,994.05
2018-12-04T20:45:19.149Z,994.08
2018-12-04T20:46:19.319Z,994.08
2018-12-04T20:47:19.520Z,994.09
2018-12-04T20:48:19.714Z,994.10
2018-12-04T20:49:19.889Z,994.10
2018-12-04T20:50:20.072Z,994.15
2018-12-04T20:51:20.257Z,994.14
2018-12-04T20:52:20.440Z,994.16
2018-12-04T20:53:20.625Z,994.11
2018-12-04T20:54:20.805Z,994.11
2018-12-04T20:55:20.984Z,994.12
2018-12-04T20:56:21.171Z,994.14
2018-12-04T20:57:21.346Z,994.13
2018-12-04T20:58:21.524Z,994.17
2018-12-04T20:59:21.703Z,994.21
2018-12-04T21:00:21.937Z,994.25
2018-12-04T21:01:22.083Z,994.20
2018-12-04T21:02:22.266Z,994.25
2018-12-04T21:03:22.481Z,994.24
2018-12-04T21:04:22.619Z,994.28
2018-12-04T21:05:22.814Z,994.29
2018-12-04T21:06:23.005Z,994.29
2018-12-04T21:07:23.180Z,994.25
2018-12-04T21:08:23.365Z,994.24
2018-12-04T21:09:23.557Z,994.23
2018-12-04T21:10:23.738Z,994.20
2018-12-04T21:11:23.914Z,994.22
2018-12-04T21:12:24.101Z,994.17
2018-12-04T21:13:24.288Z,994.17
2018-12-04T21:14:24.470Z,994.18
2018-12-04T21:15:24.648Z,994.18
2018-12-04T21:16:24.836Z,994.18
2018-12-04T21:17:25.008Z,994.20
2018-12-04T21:18:25.214Z,994.22
2018-12-04T21:19:25.388Z,994.23
2018-12-04T21:20:25.570Z,994.27
2018-12-04T21:21:25.753Z,994.30
2018-12-04T21:22:25.928Z,994.30
2018-12-04T21:23:26.111Z,994.32
2018-12-04T21:24:26.301Z,994.40
2018-12-04T21:25:26.491Z,994.41
2018-12-04T21:26:26.675Z,994.42
2018-12-04T21:27:26.862Z,994.49
2018-12-04T21:28:27.041Z,994.42
2018-12-04T21:29:27.221Z,994.48
2018-12-04T21:30:27.400Z,994.46
2018-12-04T21:31:27.594Z,994.43
2018-12-04T21:32:27.767Z,994.41
2018-12-04T21:33:27.949Z,994.39